Impacts METAR Board
IDs:

KATL - Atlanta/Hartsfield-J, GA, US

Updated at: 0800 UTC 19 Jun 2018
Potential Impact None Slight Moderate High
Time 18/20Z 18/21Z 18/22Z 18/23Z 19/00Z 19/01Z 19/02Z 19/03Z 19/04Z 19/05Z 19/06Z 19/07Z 19/08Z
Temp85 85 89 89 88 85 83 83 81 80 79 78 77
Dewpt68 68 69 69 69 69 70 69 70 69 69 69 69
Altim30.11 30.09 30.07 30.06 30.06 30.07 30.08 30.09 30.09 30.08 30.07 30.07 30.06
VIS10 10 10 10 10 10 10 10 10 10 10 10 10
CIG65 100 250 -- -- -- -- -- -- -- -- -- --
CoverBKNBKNBKNSCTSCTSCTSCTSCTSCTSCTCLRCLRFEW
FltCatVFRVFRVFRVFRVFRVFRVFRVFRVFRVFRVFRVFRVFR
WXTS------------------------
WDir130100300260270280300320310310310310
WSpd8 4 7 0 5 5 3 6 6 9 8 8 9
WGst-- -- -- -- -- -- -- -- -- -- -- -- --
Raw hourly METARs
KATL 181952Z 13008KT 10SM TS SCT050CB BKN065 BKN100 BKN250 29/20 A3011 RMK AO2 TSB30E31B36 SLP186 FRQ LTGICCG SE-S TS SE-S MOV SW CB SE-S MOV SW SHRA SE-S T02940200
KATL 182052Z 10004KT 10SM FEW040CB BKN100 BKN250 29/20 A3009 RMK AO2 LTG DSNT NE RAB11E28 TSE24 SLP180 CB NE & DSNT NE MOV STNRY SHRA VC NE & DSNT NE P0000 60000 T02940200 58017
KATL 182152Z 03007KT 10SM FEW040TCU SCT150 BKN250 32/21 A3007 RMK AO2 LTG DSNT NE SLP173 CB DSNT NE TCU VC SW & DSNT N T03170206
KATL 182252Z 00000KT 10SM FEW040 FEW150 SCT250 32/21 A3006 RMK AO2 SLP170 T03170206
KATL 182352Z 26005KT 10SM FEW050 SCT120 SCT250 31/21 A3006 RMK AO2 SLP169 60000 T03110206 10328 20278 56009
KATL 190052Z 27005KT 10SM FEW045 FEW120 SCT250 29/21 A3007 RMK AO2 SLP172 T02940206
KATL 190152Z 28003KT 10SM FEW045 SCT070 SCT250 28/21 A3008 RMK AO2 SLP175 T02830211
KATL 190252Z 30006KT 10SM FEW040 SCT250 28/21 A3009 RMK AO2 SLP177 T02830206 51008
KATL 190352Z 32006KT 10SM FEW040 SCT250 27/21 A3009 RMK AO2 SLP177 T02720211
KATL 190452Z 31009KT 10SM SCT250 27/21 A3008 RMK AO2 SLP173 T02670206 403280217
KATL 190552Z 31008KT 10SM CLR 26/21 A3007 RMK AO2 SLP169 T02610206 10311 20261 58007
KATL 190652Z 31008KT 10SM CLR 26/21 A3007 RMK AO2 SLP170 T02560206
KATL 190752Z 31009KT 10SM FEW040 25/21 A3006 RMK AO2 SLP170 T02500206



Page loaded:  08:53 UTC  |   01:53 AM Pacific  |   02:53 AM Mountain  |   03:53 AM Central  |   04:53 AM Eastern

 

ADVISORIES

FORECASTS

FORECASTS

OBSERVATIONS

USER TOOLS

ABOUT US